sensor_id;sensor_type;location;lat;lon;timestamp;temperature;humidity
71254;HTU21D;59019;47.638;18.966;2022-09-12T00:01:05;13.82;93.23
71254;HTU21D;59019;47.638;18.966;2022-09-12T00:03:31;13.75;93.50
71254;HTU21D;59019;47.638;18.966;2022-09-12T00:05:56;13.83;93.11
71254;HTU21D;59019;47.638;18.966;2022-09-12T00:08:22;13.90;92.70
71254;HTU21D;59019;47.638;18.966;2022-09-12T00:10:48;13.93;92.24
71254;HTU21D;59019;47.638;18.966;2022-09-12T00:13:13;13.89;92.36
71254;HTU21D;59019;47.638;18.966;2022-09-12T00:15:40;13.93;92.29
71254;HTU21D;59019;47.638;18.966;2022-09-12T00:18:12;13.91;92.13
71254;HTU21D;59019;47.638;18.966;2022-09-12T00:20:45;13.93;92.21
71254;HTU21D;59019;47.638;18.966;2022-09-12T00:23:12;14.00;92.10
71254;HTU21D;59019;47.638;18.966;2022-09-12T00:25:46;14.03;91.82
71254;HTU21D;59019;47.638;18.966;2022-09-12T00:28:14;14.00;91.84
71254;HTU21D;59019;47.638;18.966;2022-09-12T00:30:44;13.98;91.75
71254;HTU21D;59019;47.638;18.966;2022-09-12T00:33:10;13.92;92.05
71254;HTU21D;59019;47.638;18.966;2022-09-12T00:35:50;13.89;92.29
71254;HTU21D;59019;47.638;18.966;2022-09-12T00:38:18;13.97;92.05
71254;HTU21D;59019;47.638;18.966;2022-09-12T00:40:43;13.96;91.74
71254;HTU21D;59019;47.638;18.966;2022-09-12T00:43:11;13.89;92.08
71254;HTU21D;59019;47.638;18.966;2022-09-12T00:45:38;13.96;91.92
71254;HTU21D;59019;47.638;18.966;2022-09-12T00:48:04;13.95;91.95
71254;HTU21D;59019;47.638;18.966;2022-09-12T00:50:31;13.93;91.98
71254;HTU21D;59019;47.638;18.966;2022-09-12T00:53:04;13.93;91.80
71254;HTU21D;59019;47.638;18.966;2022-09-12T00:55:36;13.93;91.82
71254;HTU21D;59019;47.638;18.966;2022-09-12T00:58:09;13.93;91.66
71254;HTU21D;59019;47.638;18.966;2022-09-12T01:00:37;13.98;91.26
71254;HTU21D;59019;47.638;18.966;2022-09-12T01:03:11;13.90;91.39
71254;HTU21D;59019;47.638;18.966;2022-09-12T01:05:46;13.86;91.38
71254;HTU21D;59019;47.638;18.966;2022-09-12T01:08:13;13.82;91.60
71254;HTU21D;59019;47.638;18.966;2022-09-12T01:10:40;13.78;91.59
71254;HTU21D;59019;47.638;18.966;2022-09-12T01:13:08;13.74;91.70
71254;HTU21D;59019;47.638;18.966;2022-09-12T01:15:36;13.67;91.68
71254;HTU21D;59019;47.638;18.966;2022-09-12T01:29:13;13.63;91.49
71254;HTU21D;59019;47.638;18.966;2022-09-12T01:35:05;13.65;91.40
71254;HTU21D;59019;47.638;18.966;2022-09-12T01:37:49;13.61;91.66
71254;HTU21D;59019;47.638;18.966;2022-09-12T01:48:25;13.59;92.18
71254;HTU21D;59019;47.638;18.966;2022-09-12T01:51:06;13.53;92.15
71254;HTU21D;59019;47.638;18.966;2022-09-12T01:53:39;13.61;91.99
71254;HTU21D;59019;47.638;18.966;2022-09-12T01:56:13;13.62;91.67
71254;HTU21D;59019;47.638;18.966;2022-09-12T01:59:05;13.68;91.69
71254;HTU21D;59019;47.638;18.966;2022-09-12T02:01:37;13.64;91.97
71254;HTU21D;59019;47.638;18.966;2022-09-12T02:04:05;13.67;91.88
71254;HTU21D;59019;47.638;18.966;2022-09-12T02:06:38;13.60;92.14
71254;HTU21D;59019;47.638;18.966;2022-09-12T02:09:09;13.59;92.33
71254;HTU21D;59019;47.638;18.966;2022-09-12T02:11:38;13.65;92.06
71254;HTU21D;59019;47.638;18.966;2022-09-12T02:14:11;13.62;92.02
71254;HTU21D;59019;47.638;18.966;2022-09-12T02:16:45;13.77;92.16
71254;HTU21D;59019;47.638;18.966;2022-09-12T02:19:16;13.73;92.51
71254;HTU21D;59019;47.638;18.966;2022-09-12T02:21:55;13.73;92.50
71254;HTU21D;59019;47.638;18.966;2022-09-12T02:24:27;13.71;92.85
71254;HTU21D;59019;47.638;18.966;2022-09-12T02:27:15;13.67;93.11
71254;HTU21D;59019;47.638;18.966;2022-09-12T02:29:43;13.61;93.34
71254;HTU21D;59019;47.638;18.966;2022-09-12T02:32:36;13.55;93.13
71254;HTU21D;59019;47.638;18.966;2022-09-12T02:35:22;13.49;93.56
71254;HTU21D;59019;47.638;18.966;2022-09-12T02:37:59;13.51;93.71
71254;HTU21D;59019;47.638;18.966;2022-09-12T02:40:28;13.49;93.93
71254;HTU21D;59019;47.638;18.966;2022-09-12T02:42:55;13.43;93.60
71254;HTU21D;59019;47.638;18.966;2022-09-12T02:45:20;13.37;93.82
71254;HTU21D;59019;47.638;18.966;2022-09-12T02:48:09;13.37;94.36
71254;HTU21D;59019;47.638;18.966;2022-09-12T02:50:37;13.37;95.12
71254;HTU21D;59019;47.638;18.966;2022-09-12T02:53:04;13.33;95.08
71254;HTU21D;59019;47.638;18.966;2022-09-12T02:55:32;13.33;95.35
71254;HTU21D;59019;47.638;18.966;2022-09-12T02:58:04;13.35;95.28
71254;HTU21D;59019;47.638;18.966;2022-09-12T03:00:35;13.30;95.07
71254;HTU21D;59019;47.638;18.966;2022-09-12T03:05:59;13.37;94.78
71254;HTU21D;59019;47.638;18.966;2022-09-12T03:11:35;13.26;94.77
71254;HTU21D;59019;47.638;18.966;2022-09-12T03:25:26;13.29;94.29
71254;HTU21D;59019;47.638;18.966;2022-09-12T03:27:57;13.21;94.38
71254;HTU21D;59019;47.638;18.966;2022-09-12T03:30:24;13.15;94.56
71254;HTU21D;59019;47.638;18.966;2022-09-12T03:32:53;13.10;94.69
71254;HTU21D;59019;47.638;18.966;2022-09-12T03:35:21;13.10;94.71
71254;HTU21D;59019;47.638;18.966;2022-09-12T03:37:48;13.05;94.75
71254;HTU21D;59019;47.638;18.966;2022-09-12T03:40:13;12.99;94.79
71254;HTU21D;59019;47.638;18.966;2022-09-12T03:42:40;12.96;94.75
71254;HTU21D;59019;47.638;18.966;2022-09-12T03:45:06;12.93;94.75
71254;HTU21D;59019;47.638;18.966;2022-09-12T03:47:32;12.90;94.81
71254;HTU21D;59019;47.638;18.966;2022-09-12T03:49:58;12.87;95.10
71254;HTU21D;59019;47.638;18.966;2022-09-12T03:52:23;12.93;94.93
71254;HTU21D;59019;47.638;18.966;2022-09-12T03:54:49;12.97;94.60
71254;HTU21D;59019;47.638;18.966;2022-09-12T03:57:15;12.96;94.53
71254;HTU21D;59019;47.638;18.966;2022-09-12T03:59:40;12.93;94.58
71254;HTU21D;59019;47.638;18.966;2022-09-12T04:02:06;12.96;94.53
71254;HTU21D;59019;47.638;18.966;2022-09-12T04:04:31;12.93;94.49
71254;HTU21D;59019;47.638;18.966;2022-09-12T04:06:57;12.90;94.66
71254;HTU21D;59019;47.638;18.966;2022-09-12T04:09:23;12.86;94.75
71254;HTU21D;59019;47.638;18.966;2022-09-12T04:11:48;12.79;94.88
71254;HTU21D;59019;47.638;18.966;2022-09-12T04:14:14;12.67;94.79
71254;HTU21D;59019;47.638;18.966;2022-09-12T04:16:39;12.67;95.10
71254;HTU21D;59019;47.638;18.966;2022-09-12T04:19:05;12.63;95.56
71254;HTU21D;59019;47.638;18.966;2022-09-12T04:21:30;12.65;95.51
71254;HTU21D;59019;47.638;18.966;2022-09-12T04:23:56;12.65;95.27
71254;HTU21D;59019;47.638;18.966;2022-09-12T04:26:21;12.75;95.06
71254;HTU21D;59019;47.638;18.966;2022-09-12T04:28:47;12.78;94.75
71254;HTU21D;59019;47.638;18.966;2022-09-12T04:31:18;12.77;94.81
71254;HTU21D;59019;47.638;18.966;2022-09-12T04:33:46;12.73;94.75
71254;HTU21D;59019;47.638;18.966;2022-09-12T04:36:14;12.80;94.69
71254;HTU21D;59019;47.638;18.966;2022-09-12T04:38:45;12.77;94.71
71254;HTU21D;59019;47.638;18.966;2022-09-12T04:41:17;12.88;94.56
71254;HTU21D;59019;47.638;18.966;2022-09-12T04:43:44;12.87;94.63
71254;HTU21D;59019;47.638;18.966;2022-09-12T04:46:15;12.91;94.70
71254;HTU21D;59019;47.638;18.966;2022-09-12T04:48:42;12.94;94.74
71254;HTU21D;59019;47.638;18.966;2022-09-12T04:51:15;12.88;94.81
71254;HTU21D;59019;47.638;18.966;2022-09-12T04:53:42;13.00;94.79
71254;HTU21D;59019;47.638;18.966;2022-09-12T04:56:09;12.93;95.00
71254;HTU21D;59019;47.638;18.966;2022-09-12T04:58:36;12.90;94.98
71254;HTU21D;59019;47.638;18.966;2022-09-12T05:01:05;13.08;94.84
71254;HTU21D;59019;47.638;18.966;2022-09-12T05:03:31;13.11;94.88
71254;HTU21D;59019;47.638;18.966;2022-09-12T05:05:56;13.08;95.30
71254;HTU21D;59019;47.638;18.966;2022-09-12T05:08:22;13.17;95.14
71254;HTU21D;59019;47.638;18.966;2022-09-12T05:10:47;13.17;95.27
71254;HTU21D;59019;47.638;18.966;2022-09-12T05:13:14;13.24;95.30
71254;HTU21D;59019;47.638;18.966;2022-09-12T05:15:40;13.32;95.10
71254;HTU21D;59019;47.638;18.966;2022-09-12T05:18:05;13.33;95.22
71254;HTU21D;59019;47.638;18.966;2022-09-12T05:20:34;13.54;94.80
71254;HTU21D;59019;47.638;18.966;2022-09-12T05:23:00;13.54;94.94
71254;HTU21D;59019;47.638;18.966;2022-09-12T05:25:26;13.68;94.46
71254;HTU21D;59019;47.638;18.966;2022-09-12T05:27:52;13.67;94.44
71254;HTU21D;59019;47.638;18.966;2022-09-12T05:30:17;13.66;94.46
71254;HTU21D;59019;47.638;18.966;2022-09-12T05:32:44;13.68;94.40
71254;HTU21D;59019;47.638;18.966;2022-09-12T05:35:10;13.76;94.17
71254;HTU21D;59019;47.638;18.966;2022-09-12T05:37:36;13.88;94.04
71254;HTU21D;59019;47.638;18.966;2022-09-12T05:40:02;13.89;93.98
71254;HTU21D;59019;47.638;18.966;2022-09-12T05:42:31;13.98;93.78
71254;HTU21D;59019;47.638;18.966;2022-09-12T05:44:57;14.03;93.78
71254;HTU21D;59019;47.638;18.966;2022-09-12T05:47:22;14.07;93.84
71254;HTU21D;59019;47.638;18.966;2022-09-12T05:49:48;14.22;93.30
71254;HTU21D;59019;47.638;18.966;2022-09-12T05:52:15;14.44;92.50
71254;HTU21D;59019;47.638;18.966;2022-09-12T05:54:41;14.77;91.74
71254;HTU21D;59019;47.638;18.966;2022-09-12T05:57:07;14.85;90.89
71254;HTU21D;59019;47.638;18.966;2022-09-12T05:59:33;15.01;90.66
71254;HTU21D;59019;47.638;18.966;2022-09-12T06:01:59;15.17;89.52
71254;HTU21D;59019;47.638;18.966;2022-09-12T06:04:25;15.38;88.70
71254;HTU21D;59019;47.638;18.966;2022-09-12T06:06:53;15.49;88.62
71254;HTU21D;59019;47.638;18.966;2022-09-12T06:09:19;15.68;87.96
71254;HTU21D;59019;47.638;18.966;2022-09-12T06:11:45;15.78;87.50
71254;HTU21D;59019;47.638;18.966;2022-09-12T06:14:13;15.91;87.30
71254;HTU21D;59019;47.638;18.966;2022-09-12T06:16:39;16.02;86.95
71254;HTU21D;59019;47.638;18.966;2022-09-12T06:19:21;16.26;86.75
71254;HTU21D;59019;47.638;18.966;2022-09-12T06:21:48;16.54;85.51
71254;HTU21D;59019;47.638;18.966;2022-09-12T06:24:18;16.76;85.58
71254;HTU21D;59019;47.638;18.966;2022-09-12T06:26:44;17.02;84.55
71254;HTU21D;59019;47.638;18.966;2022-09-12T06:29:11;17.14;83.08
71254;HTU21D;59019;47.638;18.966;2022-09-12T06:31:38;17.24;82.59
71254;HTU21D;59019;47.638;18.966;2022-09-12T06:34:07;17.29;82.33
71254;HTU21D;59019;47.638;18.966;2022-09-12T06:36:36;17.24;82.51
71254;HTU21D;59019;47.638;18.966;2022-09-12T06:39:08;17.46;82.78
71254;HTU21D;59019;47.638;18.966;2022-09-12T06:41:34;17.63;81.54
71254;HTU21D;59019;47.638;18.966;2022-09-12T06:44:01;17.73;81.10
71254;HTU21D;59019;47.638;18.966;2022-09-12T06:46:27;18.00;82.00
71254;HTU21D;59019;47.638;18.966;2022-09-12T06:48:55;18.35;80.36
71254;HTU21D;59019;47.638;18.966;2022-09-12T06:51:20;18.35;79.54
71254;HTU21D;59019;47.638;18.966;2022-09-12T06:53:47;18.24;78.62
71254;HTU21D;59019;47.638;18.966;2022-09-12T06:56:18;17.72;79.00
71254;HTU21D;59019;47.638;18.966;2022-09-12T06:58:45;17.43;80.33
71254;HTU21D;59019;47.638;18.966;2022-09-12T07:01:17;17.18;81.50
71254;HTU21D;59019;47.638;18.966;2022-09-12T07:03:46;17.07;82.55
71254;HTU21D;59019;47.638;18.966;2022-09-12T07:06:14;17.08;82.49
71254;HTU21D;59019;47.638;18.966;2022-09-12T07:08:41;17.01;83.20
71254;HTU21D;59019;47.638;18.966;2022-09-12T07:13:40;17.99;81.88
71254;HTU21D;59019;47.638;18.966;2022-09-12T07:16:06;18.17;80.14
71254;HTU21D;59019;47.638;18.966;2022-09-12T07:18:33;18.17;79.21
71254;HTU21D;59019;47.638;18.966;2022-09-12T07:21:03;17.83;79.39
71254;HTU21D;59019;47.638;18.966;2022-09-12T07:23:29;17.41;80.35
71254;HTU21D;59019;47.638;18.966;2022-09-12T07:25:55;17.17;81.03
71254;HTU21D;59019;47.638;18.966;2022-09-12T07:28:26;17.01;82.23
71254;HTU21D;59019;47.638;18.966;2022-09-12T07:30:52;17.21;83.13
71254;HTU21D;59019;47.638;18.966;2022-09-12T07:33:22;17.36;82.27
71254;HTU21D;59019;47.638;18.966;2022-09-12T07:35:49;17.43;81.66
71254;HTU21D;59019;47.638;18.966;2022-09-12T07:38:15;17.47;81.07
71254;HTU21D;59019;47.638;18.966;2022-09-12T07:40:41;17.87;80.93
71254;HTU21D;59019;47.638;18.966;2022-09-12T07:43:07;18.24;79.80
71254;HTU21D;59019;47.638;18.966;2022-09-12T07:45:33;18.69;79.10
71254;HTU21D;59019;47.638;18.966;2022-09-12T07:47:59;19.36;77.95
71254;HTU21D;59019;47.638;18.966;2022-09-12T07:50:24;19.81;75.32
71254;HTU21D;59019;47.638;18.966;2022-09-12T07:52:52;20.25;73.79
71254;HTU21D;59019;47.638;18.966;2022-09-12T07:55:19;20.63;72.77
71254;HTU21D;59019;47.638;18.966;2022-09-12T07:57:48;20.93;71.18
71254;HTU21D;59019;47.638;18.966;2022-09-12T08:00:14;21.31;71.55
71254;HTU21D;59019;47.638;18.966;2022-09-12T08:02:40;21.57;68.52
71254;HTU21D;59019;47.638;18.966;2022-09-12T08:05:05;21.61;68.86
71254;HTU21D;59019;47.638;18.966;2022-09-12T08:07:31;21.48;69.35
71254;HTU21D;59019;47.638;18.966;2022-09-12T08:09:58;21.80;69.30
71254;HTU21D;59019;47.638;18.966;2022-09-12T08:12:26;22.08;67.74
71254;HTU21D;59019;47.638;18.966;2022-09-12T08:14:52;22.28;66.33
71254;HTU21D;59019;47.638;18.966;2022-09-12T08:17:18;22.37;65.67
71254;HTU21D;59019;47.638;18.966;2022-09-12T08:19:43;22.61;65.86
71254;HTU21D;59019;47.638;18.966;2022-09-12T08:22:10;22.75;64.76
71254;HTU21D;59019;47.638;18.966;2022-09-12T08:24:36;22.79;64.15
71254;HTU21D;59019;47.638;18.966;2022-09-12T08:27:01;23.14;63.27
71254;HTU21D;59019;47.638;18.966;2022-09-12T08:29:27;23.45;63.46
71254;HTU21D;59019;47.638;18.966;2022-09-12T08:31:52;23.60;61.68
71254;HTU21D;59019;47.638;18.966;2022-09-12T08:34:18;23.51;60.15
71254;HTU21D;59019;47.638;18.966;2022-09-12T08:36:45;23.53;60.19
71254;HTU21D;59019;47.638;18.966;2022-09-12T08:39:11;23.70;59.54
71254;HTU21D;59019;47.638;18.966;2022-09-12T08:41:43;23.85;60.21
71254;HTU21D;59019;47.638;18.966;2022-09-12T08:47:24;23.90;59.86
71254;HTU21D;59019;47.638;18.966;2022-09-12T08:52:38;24.84;57.95
71254;HTU21D;59019;47.638;18.966;2022-09-12T08:55:21;24.71;57.40
71254;HTU21D;59019;47.638;18.966;2022-09-12T08:57:48;24.31;58.52
71254;HTU21D;59019;47.638;18.966;2022-09-12T09:00:15;24.26;58.38
71254;HTU21D;59019;47.638;18.966;2022-09-12T09:05:31;24.50;56.64
71254;HTU21D;59019;47.638;18.966;2022-09-12T09:13:41;23.68;56.41
71254;HTU21D;59019;47.638;18.966;2022-09-12T09:16:33;23.77;56.38
71254;HTU21D;59019;47.638;18.966;2022-09-12T09:22:27;23.38;56.77
71254;HTU21D;59019;47.638;18.966;2022-09-12T09:25:02;23.21;57.05
71254;HTU21D;59019;47.638;18.966;2022-09-12T09:27:58;23.71;57.02
71254;HTU21D;59019;47.638;18.966;2022-09-12T09:30:28;23.88;55.91
71254;HTU21D;59019;47.638;18.966;2022-09-12T09:32:58;24.43;55.01
71254;HTU21D;59019;47.638;18.966;2022-09-12T09:35:55;24.17;54.62
71254;HTU21D;59019;47.638;18.966;2022-09-12T09:38:36;23.44;55.68
71254;HTU21D;59019;47.638;18.966;2022-09-12T09:43:56;22.37;58.48
71254;HTU21D;59019;47.638;18.966;2022-09-12T09:46:22;22.72;58.92
71254;HTU21D;59019;47.638;18.966;2022-09-12T09:48:49;22.90;57.10
71254;HTU21D;59019;47.638;18.966;2022-09-12T09:51:24;22.85;56.58
71254;HTU21D;59019;47.638;18.966;2022-09-12T09:54:01;22.71;56.60
71254;HTU21D;59019;47.638;18.966;2022-09-12T09:56:39;22.62;57.13
71254;HTU21D;59019;47.638;18.966;2022-09-12T09:59:28;22.42;57.93
71254;HTU21D;59019;47.638;18.966;2022-09-12T10:02:16;21.91;58.64
71254;HTU21D;59019;47.638;18.966;2022-09-12T10:04:54;21.37;59.02
71254;HTU21D;59019;47.638;18.966;2022-09-12T10:07:22;20.99;60.66
71254;HTU21D;59019;47.638;18.966;2022-09-12T10:10:13;20.81;62.18
71254;HTU21D;59019;47.638;18.966;2022-09-12T10:12:39;20.76;63.50
71254;HTU21D;59019;47.638;18.966;2022-09-12T10:17:47;21.58;63.13
71254;HTU21D;59019;47.638;18.966;2022-09-12T10:20:35;22.81;60.65
71254;HTU21D;59019;47.638;18.966;2022-09-12T10:23:28;23.00;58.47
71254;HTU21D;59019;47.638;18.966;2022-09-12T10:25:58;22.91;57.61
71254;HTU21D;59019;47.638;18.966;2022-09-12T10:28:35;22.22;59.24
71254;HTU21D;59019;47.638;18.966;2022-09-12T10:31:02;22.08;60.60
71254;HTU21D;59019;47.638;18.966;2022-09-12T10:33:28;21.96;61.15
71254;HTU21D;59019;47.638;18.966;2022-09-12T10:35:57;22.07;60.23
71254;HTU21D;59019;47.638;18.966;2022-09-12T10:40:59;22.60;59.06
71254;HTU21D;59019;47.638;18.966;2022-09-12T10:43:29;22.47;58.46
71254;HTU21D;59019;47.638;18.966;2022-09-12T10:48:43;22.05;59.79
71254;HTU21D;59019;47.638;18.966;2022-09-12T10:54:10;22.11;59.13
71254;HTU21D;59019;47.638;18.966;2022-09-12T11:05:09;22.46;58.90
71254;HTU21D;59019;47.638;18.966;2022-09-12T11:07:48;22.97;57.47
71254;HTU21D;59019;47.638;18.966;2022-09-12T11:19:09;23.98;53.14
71254;HTU21D;59019;47.638;18.966;2022-09-12T11:21:59;24.44;52.55
71254;HTU21D;59019;47.638;18.966;2022-09-12T11:30:11;24.11;53.11
71254;HTU21D;59019;47.638;18.966;2022-09-12T11:35:17;23.09;55.23
71254;HTU21D;59019;47.638;18.966;2022-09-12T11:42:45;22.04;57.06
71254;HTU21D;59019;47.638;18.966;2022-09-12T11:45:20;21.33;58.33
71254;HTU21D;59019;47.638;18.966;2022-09-12T11:47:52;21.04;59.53
71254;HTU21D;59019;47.638;18.966;2022-09-12T11:50:29;20.87;60.36
71254;HTU21D;59019;47.638;18.966;2022-09-12T11:53:02;20.88;61.02
71254;HTU21D;59019;47.638;18.966;2022-09-12T11:55:39;21.01;60.57
71254;HTU21D;59019;47.638;18.966;2022-09-12T11:58:07;21.19;60.54
71254;HTU21D;59019;47.638;18.966;2022-09-12T12:00:52;21.21;59.77
71254;HTU21D;59019;47.638;18.966;2022-09-12T12:08:25;21.24;60.09
71254;HTU21D;59019;47.638;18.966;2022-09-12T12:16:24;21.36;60.02
71254;HTU21D;59019;47.638;18.966;2022-09-12T12:18:53;21.02;60.51
71254;HTU21D;59019;47.638;18.966;2022-09-12T12:34:36;21.72;61.48
71254;HTU21D;59019;47.638;18.966;2022-09-12T12:45:43;21.95;59.28
71254;HTU21D;59019;47.638;18.966;2022-09-12T12:47:54;21.61;59.70
71254;HTU21D;59019;47.638;18.966;2022-09-12T12:50:26;21.61;59.56
71254;HTU21D;59019;47.638;18.966;2022-09-12T12:53:04;22.21;59.09
71254;HTU21D;59019;47.638;18.966;2022-09-12T12:55:46;22.93;58.13
71254;HTU21D;59019;47.638;18.966;2022-09-12T12:58:34;23.57;57.15
71254;HTU21D;59019;47.638;18.966;2022-09-12T13:01:14;24.11;54.20
71254;HTU21D;59019;47.638;18.966;2022-09-12T13:03:44;24.32;54.23
71254;HTU21D;59019;47.638;18.966;2022-09-12T13:06:31;24.74;53.01
71254;HTU21D;59019;47.638;18.966;2022-09-12T13:09:21;24.59;52.37
71254;HTU21D;59019;47.638;18.966;2022-09-12T13:14:53;23.26;53.75
71254;HTU21D;59019;47.638;18.966;2022-09-12T13:20:04;22.13;57.05
71254;HTU21D;59019;47.638;18.966;2022-09-12T13:22:40;21.92;57.39
71254;HTU21D;59019;47.638;18.966;2022-09-12T13:25:22;21.70;57.89
71254;HTU21D;59019;47.638;18.966;2022-09-12T13:30:41;21.38;58.79
71254;HTU21D;59019;47.638;18.966;2022-09-12T13:33:15;21.99;57.14
71254;HTU21D;59019;47.638;18.966;2022-09-12T13:35:55;22.44;56.01
71254;HTU21D;59019;47.638;18.966;2022-09-12T13:43:59;23.47;52.59
71254;HTU21D;59019;47.638;18.966;2022-09-12T13:46:32;23.59;50.37
71254;HTU21D;59019;47.638;18.966;2022-09-12T13:49:01;23.67;49.73
71254;HTU21D;59019;47.638;18.966;2022-09-12T13:51:30;23.61;48.60
71254;HTU21D;59019;47.638;18.966;2022-09-12T13:53:58;23.64;48.41
71254;HTU21D;59019;47.638;18.966;2022-09-12T13:56:26;23.60;47.83
71254;HTU21D;59019;47.638;18.966;2022-09-12T13:58:54;23.51;48.16
71254;HTU21D;59019;47.638;18.966;2022-09-12T14:01:23;23.40;48.37
71254;HTU21D;59019;47.638;18.966;2022-09-12T14:03:52;23.54;48.62
71254;HTU21D;59019;47.638;18.966;2022-09-12T14:09:36;23.73;48.73
71254;HTU21D;59019;47.638;18.966;2022-09-12T14:12:00;23.98;48.46
71254;HTU21D;59019;47.638;18.966;2022-09-12T14:14:32;23.98;47.87
71254;HTU21D;59019;47.638;18.966;2022-09-12T14:17:00;23.98;48.19
71254;HTU21D;59019;47.638;18.966;2022-09-12T14:19:39;23.77;48.47
71254;HTU21D;59019;47.638;18.966;2022-09-12T14:22:11;23.45;48.08
71254;HTU21D;59019;47.638;18.966;2022-09-12T14:24:46;23.46;48.35
71254;HTU21D;59019;47.638;18.966;2022-09-12T14:27:23;23.31;48.59
71254;HTU21D;59019;47.638;18.966;2022-09-12T14:30:06;23.20;49.01
71254;HTU21D;59019;47.638;18.966;2022-09-12T14:32:34;23.36;49.26
71254;HTU21D;59019;47.638;18.966;2022-09-12T14:35:17;23.17;48.83
71254;HTU21D;59019;47.638;18.966;2022-09-12T14:37:47;22.95;49.87
71254;HTU21D;59019;47.638;18.966;2022-09-12T14:40:21;22.76;49.60
71254;HTU21D;59019;47.638;18.966;2022-09-12T14:42:49;22.62;49.56
71254;HTU21D;59019;47.638;18.966;2022-09-12T14:45:30;22.41;50.26
71254;HTU21D;59019;47.638;18.966;2022-09-12T14:47:57;22.35;50.97
71254;HTU21D;59019;47.638;18.966;2022-09-12T14:50:28;22.04;50.99
71254;HTU21D;59019;47.638;18.966;2022-09-12T14:53:50;21.53;51.35
71254;HTU21D;59019;47.638;18.966;2022-09-12T14:55:58;21.51;51.94
71254;HTU21D;59019;47.638;18.966;2022-09-12T14:58:26;21.49;52.28
71254;HTU21D;59019;47.638;18.966;2022-09-12T15:00:57;21.50;52.56
71254;HTU21D;59019;47.638;18.966;2022-09-12T15:05:53;21.38;52.54
71254;HTU21D;59019;47.638;18.966;2022-09-12T15:08:19;21.43;52.64
71254;HTU21D;59019;47.638;18.966;2022-09-12T15:10:45;21.38;53.06
71254;HTU21D;59019;47.638;18.966;2022-09-12T15:13:13;21.36;53.07
71254;HTU21D;59019;47.638;18.966;2022-09-12T15:15:41;21.23;53.12
71254;HTU21D;59019;47.638;18.966;2022-09-12T15:18:07;21.13;53.35
71254;HTU21D;59019;47.638;18.966;2022-09-12T15:20:39;20.93;53.17
71254;HTU21D;59019;47.638;18.966;2022-09-12T15:26:00;20.70;53.69
71254;HTU21D;59019;47.638;18.966;2022-09-12T15:28:26;20.63;53.72
71254;HTU21D;59019;47.638;18.966;2022-09-12T15:30:54;20.57;53.75
71254;HTU21D;59019;47.638;18.966;2022-09-12T15:33:22;20.40;54.33
71254;HTU21D;59019;47.638;18.966;2022-09-12T15:35:50;20.28;54.97
71254;HTU21D;59019;47.638;18.966;2022-09-12T15:38:15;20.31;54.66
71254;HTU21D;59019;47.638;18.966;2022-09-12T15:40:41;20.12;55.02
71254;HTU21D;59019;47.638;18.966;2022-09-12T15:43:09;20.17;55.00
71254;HTU21D;59019;47.638;18.966;2022-09-12T15:45:37;20.01;55.55
71254;HTU21D;59019;47.638;18.966;2022-09-12T15:48:03;20.03;55.95
71254;HTU21D;59019;47.638;18.966;2022-09-12T15:50:29;19.98;55.90
71254;HTU21D;59019;47.638;18.966;2022-09-12T15:52:56;19.88;56.33
71254;HTU21D;59019;47.638;18.966;2022-09-12T15:55:27;19.77;56.68
71254;HTU21D;59019;47.638;18.966;2022-09-12T15:57:53;19.59;57.45
71254;HTU21D;59019;47.638;18.966;2022-09-12T16:00:19;19.56;57.76
71254;HTU21D;59019;47.638;18.966;2022-09-12T16:02:48;19.59;57.90
71254;HTU21D;59019;47.638;18.966;2022-09-12T16:05:20;19.55;58.05
71254;HTU21D;59019;47.638;18.966;2022-09-12T16:07:46;19.40;58.74
71254;HTU21D;59019;47.638;18.966;2022-09-12T16:10:15;19.38;58.66
71254;HTU21D;59019;47.638;18.966;2022-09-12T16:12:41;19.27;59.12
71254;HTU21D;59019;47.638;18.966;2022-09-12T16:15:11;19.15;58.90
71254;HTU21D;59019;47.638;18.966;2022-09-12T16:17:37;19.18;58.77
71254;HTU21D;59019;47.638;18.966;2022-09-12T16:20:03;19.07;59.20
71254;HTU21D;59019;47.638;18.966;2022-09-12T16:22:29;18.94;59.50
71254;HTU21D;59019;47.638;18.966;2022-09-12T16:24:55;18.93;59.65
71254;HTU21D;59019;47.638;18.966;2022-09-12T16:27:20;18.87;59.88
71254;HTU21D;59019;47.638;18.966;2022-09-12T16:29:46;18.91;59.97
71254;HTU21D;59019;47.638;18.966;2022-09-12T16:32:11;18.77;60.58
71254;HTU21D;59019;47.638;18.966;2022-09-12T16:34:37;18.77;60.73
71254;HTU21D;59019;47.638;18.966;2022-09-12T16:37:02;18.61;61.27
71254;HTU21D;59019;47.638;18.966;2022-09-12T16:39:28;18.56;60.47
71254;HTU21D;59019;47.638;18.966;2022-09-12T16:41:54;18.47;60.76
71254;HTU21D;59019;47.638;18.966;2022-09-12T16:44:19;18.42;61.25
71254;HTU21D;59019;47.638;18.966;2022-09-12T16:46:45;18.28;62.08
71254;HTU21D;59019;47.638;18.966;2022-09-12T16:49:10;18.27;62.24
71254;HTU21D;59019;47.638;18.966;2022-09-12T16:51:37;18.10;62.76
71254;HTU21D;59019;47.638;18.966;2022-09-12T16:54:03;18.02;63.01
71254;HTU21D;59019;47.638;18.966;2022-09-12T16:56:29;17.91;63.08
71254;HTU21D;59019;47.638;18.966;2022-09-12T16:58:54;17.83;62.81
71254;HTU21D;59019;47.638;18.966;2022-09-12T17:01:24;17.85;62.73
71254;HTU21D;59019;47.638;18.966;2022-09-12T17:03:54;17.74;62.58
71254;HTU21D;59019;47.638;18.966;2022-09-12T17:06:21;17.73;63.28
71254;HTU21D;59019;47.638;18.966;2022-09-12T17:08:48;17.63;63.73
71254;HTU21D;59019;47.638;18.966;2022-09-12T17:11:19;17.52;64.30
71254;HTU21D;59019;47.638;18.966;2022-09-12T17:13:50;17.46;64.57
71254;HTU21D;59019;47.638;18.966;2022-09-12T17:16:16;17.34;64.49
71254;HTU21D;59019;47.638;18.966;2022-09-12T17:18:42;17.45;64.37
71254;HTU21D;59019;47.638;18.966;2022-09-12T17:21:09;17.49;64.18
71254;HTU21D;59019;47.638;18.966;2022-09-12T17:23:35;17.22;65.56
71254;HTU21D;59019;47.638;18.966;2022-09-12T17:26:00;17.09;66.43
71254;HTU21D;59019;47.638;18.966;2022-09-12T17:28:26;16.85;66.31
71254;HTU21D;59019;47.638;18.966;2022-09-12T17:30:58;16.79;66.49
71254;HTU21D;59019;47.638;18.966;2022-09-12T17:33:24;16.62;66.85
71254;HTU21D;59019;47.638;18.966;2022-09-12T17:35:50;16.73;65.53
71254;HTU21D;59019;47.638;18.966;2022-09-12T17:38:16;16.76;65.09
71254;HTU21D;59019;47.638;18.966;2022-09-12T17:40:42;16.73;65.30
71254;HTU21D;59019;47.638;18.966;2022-09-12T17:43:10;16.60;66.07
71254;HTU21D;59019;47.638;18.966;2022-09-12T17:45:36;16.70;65.26
71254;HTU21D;59019;47.638;18.966;2022-09-12T17:48:03;16.74;65.58
71254;HTU21D;59019;47.638;18.966;2022-09-12T17:50:34;16.48;65.54
71254;HTU21D;59019;47.638;18.966;2022-09-12T17:53:00;16.46;65.93
71254;HTU21D;59019;47.638;18.966;2022-09-12T17:55:27;16.46;66.07
71254;HTU21D;59019;47.638;18.966;2022-09-12T17:57:57;16.26;66.81